Airfield :
LOGIN :

Register | Disclaimer

   EN    FR    IT 

 










Legend :    VFR   Marginal VFR   IFR   Intensive IFR   Very Intensive IFR
Visi :
Ceiling :
>= 8 km
>= 3000ft
5 to 8 km
1000 to 3000 ft
1500m to 5 km
500 to 1000 ft
800 to 1500m
200 to 500 ft
< 800m
< 200 ft
Symbols :   Thunderstorms  Fog  Heavy snow  Heavy precipitations  Wind > 20 kt
SIGMETs :     Misc.  Thunderstorms  Icing  Turbulence  Mountain Waves  Volcanic Ashes






- Airport Elevation : 16 ft
- IATA code : LPX


EVLA - Liepaja

CURRENT METAR :
  • 221250Z AUTO 11010KT 9999 OVC087/// 02/M02 Q1023

EXPIRED METARs :
  • 221220Z AUTO 12012KT 9999 OVC086/// 02/M02 Q1023
  • 221150Z AUTO 12010KT 080V150 9999 FEW022/// OVC084/// 02/M02 Q1023
  • 221120Z AUTO 12011KT 9999 BKN022/// OVC082/// 02/M02 Q1023
  • 221050Z AUTO 12011KT 9999 OVC021/// 02/M02 Q1023
  • 221020Z AUTO 12014KT 090V150 9999 BKN021/// OVC078/// 02/M02 Q1023

TAF TAF EVLA
Valid from the 22 at 12:00 until the 23 at 12:00 UTC


221103Z 2212/2312 12013KT 9999 BKN020
TEMPO 2212/2215 14015G25KT



MET'MAP, your aeronautical weather chart ! - Copyright ORBIFLY December 2007 - Disclaimer

ORBIFLY MET'MAP TEAM :

Programming & Development : Alexandra Zaïnal
Concept & Development : Baudouin d'Aumeries
Co-Development & Prog : Marc-Olivier Méhu
Technical & hardware support : Manuel Goepfert

Contact : metmap@orbifly.com




SOURCES & CREDITS :

   NOAA